sensor_id;sensor_type;location;lat;lon;timestamp;P1;durP1;ratioP1;P2;durP2;ratioP2
70247;SDS011;57641;51.416;5.506;2022-12-13T00:01:12;23.53;;;9.50;;
70247;SDS011;57641;51.416;5.506;2022-12-13T00:03:39;18.35;;;9.68;;
70247;SDS011;57641;51.416;5.506;2022-12-13T00:06:05;24.07;;;9.83;;
70247;SDS011;57641;51.416;5.506;2022-12-13T00:08:32;23.57;;;9.73;;
70247;SDS011;57641;51.416;5.506;2022-12-13T00:11:02;25.77;;;10.70;;
70247;SDS011;57641;51.416;5.506;2022-12-13T00:13:30;18.80;;;10.03;;
70247;SDS011;57641;51.416;5.506;2022-12-13T00:15:57;23.37;;;10.23;;
70247;SDS011;57641;51.416;5.506;2022-12-13T00:18:24;25.93;;;10.00;;
70247;SDS011;57641;51.416;5.506;2022-12-13T00:20:50;19.90;;;9.47;;
70247;SDS011;57641;51.416;5.506;2022-12-13T00:23:16;21.27;;;9.93;;
70247;SDS011;57641;51.416;5.506;2022-12-13T00:25:41;21.33;;;9.37;;
70247;SDS011;57641;51.416;5.506;2022-12-13T00:28:07;24.27;;;9.93;;
70247;SDS011;57641;51.416;5.506;2022-12-13T00:30:32;19.53;;;9.63;;
70247;SDS011;57641;51.416;5.506;2022-12-13T00:32:58;28.77;;;10.87;;
70247;SDS011;57641;51.416;5.506;2022-12-13T00:35:24;28.37;;;10.70;;
70247;SDS011;57641;51.416;5.506;2022-12-13T00:37:49;24.43;;;10.23;;
70247;SDS011;57641;51.416;5.506;2022-12-13T00:40:15;24.13;;;10.43;;
70247;SDS011;57641;51.416;5.506;2022-12-13T00:42:40;27.53;;;10.27;;
70247;SDS011;57641;51.416;5.506;2022-12-13T00:45:06;25.20;;;10.17;;
70247;SDS011;57641;51.416;5.506;2022-12-13T00:47:35;28.03;;;10.83;;
70247;SDS011;57641;51.416;5.506;2022-12-13T00:50:02;23.90;;;11.10;;
70247;SDS011;57641;51.416;5.506;2022-12-13T00:52:28;26.37;;;10.77;;
70247;SDS011;57641;51.416;5.506;2022-12-13T00:54:54;28.03;;;10.43;;
70247;SDS011;57641;51.416;5.506;2022-12-13T00:57:19;22.73;;;9.97;;
70247;SDS011;57641;51.416;5.506;2022-12-13T00:59:45;25.43;;;10.83;;
70247;SDS011;57641;51.416;5.506;2022-12-13T01:02:11;25.43;;;10.20;;
70247;SDS011;57641;51.416;5.506;2022-12-13T01:04:36;23.57;;;10.70;;
70247;SDS011;57641;51.416;5.506;2022-12-13T01:07:01;27.27;;;9.93;;
70247;SDS011;57641;51.416;5.506;2022-12-13T01:09:27;24.40;;;10.20;;
70247;SDS011;57641;51.416;5.506;2022-12-13T01:11:58;26.07;;;11.20;;
70247;SDS011;57641;51.416;5.506;2022-12-13T01:14:25;24.23;;;10.57;;
70247;SDS011;57641;51.416;5.506;2022-12-13T01:16:52;24.90;;;10.90;;
70247;SDS011;57641;51.416;5.506;2022-12-13T01:19:21;26.40;;;10.97;;
70247;SDS011;57641;51.416;5.506;2022-12-13T01:21:47;31.00;;;11.50;;
70247;SDS011;57641;51.416;5.506;2022-12-13T01:24:13;25.13;;;10.70;;
70247;SDS011;57641;51.416;5.506;2022-12-13T01:26:39;26.20;;;10.97;;
70247;SDS011;57641;51.416;5.506;2022-12-13T01:29:05;22.63;;;10.27;;
70247;SDS011;57641;51.416;5.506;2022-12-13T01:31:31;28.17;;;11.20;;
70247;SDS011;57641;51.416;5.506;2022-12-13T01:33:57;25.30;;;10.60;;
70247;SDS011;57641;51.416;5.506;2022-12-13T01:36:22;28.00;;;11.60;;
70247;SDS011;57641;51.416;5.506;2022-12-13T01:38:48;22.63;;;10.57;;
70247;SDS011;57641;51.416;5.506;2022-12-13T01:41:15;24.27;;;10.60;;
70247;SDS011;57641;51.416;5.506;2022-12-13T01:46:08;25.27;;;10.47;;
70247;SDS011;57641;51.416;5.506;2022-12-13T01:48:36;28.43;;;11.00;;
70247;SDS011;57641;51.416;5.506;2022-12-13T01:51:06;26.13;;;11.00;;
70247;SDS011;57641;51.416;5.506;2022-12-13T01:53:37;27.03;;;10.87;;
70247;SDS011;57641;51.416;5.506;2022-12-13T01:56:08;22.60;;;10.27;;
70247;SDS011;57641;51.416;5.506;2022-12-13T01:58:37;27.37;;;10.60;;
70247;SDS011;57641;51.416;5.506;2022-12-13T02:01:04;29.00;;;10.83;;
70247;SDS011;57641;51.416;5.506;2022-12-13T02:03:29;27.07;;;10.77;;
70247;SDS011;57641;51.416;5.506;2022-12-13T02:05:58;22.13;;;10.57;;
70247;SDS011;57641;51.416;5.506;2022-12-13T02:08:27;24.70;;;10.80;;
70247;SDS011;57641;51.416;5.506;2022-12-13T02:10:54;27.07;;;10.73;;
70247;SDS011;57641;51.416;5.506;2022-12-13T02:13:20;29.63;;;11.67;;
70247;SDS011;57641;51.416;5.506;2022-12-13T02:21:36;28.97;;;10.97;;
70247;SDS011;57641;51.416;5.506;2022-12-13T02:29:37;25.03;;;11.03;;
70247;SDS011;57641;51.416;5.506;2022-12-13T02:32:29;23.90;;;10.37;;
70247;SDS011;57641;51.416;5.506;2022-12-13T02:35:04;27.80;;;11.87;;
70247;SDS011;57641;51.416;5.506;2022-12-13T02:37:43;24.27;;;11.13;;
70247;SDS011;57641;51.416;5.506;2022-12-13T02:40:29;25.80;;;11.53;;
70247;SDS011;57641;51.416;5.506;2022-12-13T02:43:09;23.67;;;11.27;;
70247;SDS011;57641;51.416;5.506;2022-12-13T02:45:46;31.37;;;11.33;;
70247;SDS011;57641;51.416;5.506;2022-12-13T02:48:13;27.93;;;11.67;;
70247;SDS011;57641;51.416;5.506;2022-12-13T02:50:45;27.50;;;11.37;;
70247;SDS011;57641;51.416;5.506;2022-12-13T02:53:12;28.80;;;10.57;;
70247;SDS011;57641;51.416;5.506;2022-12-13T02:55:39;32.13;;;11.43;;
70247;SDS011;57641;51.416;5.506;2022-12-13T02:58:05;28.33;;;12.63;;
70247;SDS011;57641;51.416;5.506;2022-12-13T03:05:57;28.10;;;11.05;;
70247;SDS011;57641;51.416;5.506;2022-12-13T03:14:35;25.53;;;11.40;;
70247;SDS011;57641;51.416;5.506;2022-12-13T03:17:09;26.47;;;11.60;;
70247;SDS011;57641;51.416;5.506;2022-12-13T03:19:40;28.07;;;12.47;;
70247;SDS011;57641;51.416;5.506;2022-12-13T03:22:06;25.13;;;11.77;;
70247;SDS011;57641;51.416;5.506;2022-12-13T03:24:32;25.57;;;12.10;;
70247;SDS011;57641;51.416;5.506;2022-12-13T03:26:57;28.13;;;12.13;;
70247;SDS011;57641;51.416;5.506;2022-12-13T03:29:23;25.37;;;11.43;;
70247;SDS011;57641;51.416;5.506;2022-12-13T03:31:48;32.30;;;11.87;;
70247;SDS011;57641;51.416;5.506;2022-12-13T03:34:14;27.17;;;12.13;;
70247;SDS011;57641;51.416;5.506;2022-12-13T03:36:39;26.03;;;11.87;;
70247;SDS011;57641;51.416;5.506;2022-12-13T03:39:05;34.00;;;13.10;;
70247;SDS011;57641;51.416;5.506;2022-12-13T03:41:31;31.13;;;13.40;;
70247;SDS011;57641;51.416;5.506;2022-12-13T03:43:57;24.47;;;11.00;;
70247;SDS011;57641;51.416;5.506;2022-12-13T03:46:24;27.73;;;12.63;;
70247;SDS011;57641;51.416;5.506;2022-12-13T03:48:49;27.30;;;11.00;;
70247;SDS011;57641;51.416;5.506;2022-12-13T03:51:15;29.40;;;13.03;;
70247;SDS011;57641;51.416;5.506;2022-12-13T03:53:40;31.93;;;12.53;;
70247;SDS011;57641;51.416;5.506;2022-12-13T03:56:06;29.57;;;12.77;;
70247;SDS011;57641;51.416;5.506;2022-12-13T03:58:32;32.13;;;12.67;;
70247;SDS011;57641;51.416;5.506;2022-12-13T04:00:59;32.07;;;12.23;;
70247;SDS011;57641;51.416;5.506;2022-12-13T04:03:24;33.17;;;13.50;;
70247;SDS011;57641;51.416;5.506;2022-12-13T04:05:50;29.37;;;12.80;;
70247;SDS011;57641;51.416;5.506;2022-12-13T04:08:15;27.87;;;12.47;;
70247;SDS011;57641;51.416;5.506;2022-12-13T04:10:40;36.17;;;12.63;;
70247;SDS011;57641;51.416;5.506;2022-12-13T04:13:06;32.50;;;12.93;;
70247;SDS011;57641;51.416;5.506;2022-12-13T04:15:50;29.30;;;11.50;;
70247;SDS011;57641;51.416;5.506;2022-12-13T04:18:16;29.07;;;12.10;;
70247;SDS011;57641;51.416;5.506;2022-12-13T04:20:43;30.63;;;12.47;;
70247;SDS011;57641;51.416;5.506;2022-12-13T04:23:10;31.23;;;13.10;;
70247;SDS011;57641;51.416;5.506;2022-12-13T04:25:36;29.73;;;12.00;;
70247;SDS011;57641;51.416;5.506;2022-12-13T04:28:03;29.13;;;12.23;;
70247;SDS011;57641;51.416;5.506;2022-12-13T04:30:29;30.40;;;12.67;;
70247;SDS011;57641;51.416;5.506;2022-12-13T04:32:58;31.40;;;12.73;;
70247;SDS011;57641;51.416;5.506;2022-12-13T04:35:23;29.07;;;12.63;;
70247;SDS011;57641;51.416;5.506;2022-12-13T04:37:49;30.03;;;12.70;;
70247;SDS011;57641;51.416;5.506;2022-12-13T04:40:14;29.87;;;12.73;;
70247;SDS011;57641;51.416;5.506;2022-12-13T04:42:40;25.03;;;13.30;;
70247;SDS011;57641;51.416;5.506;2022-12-13T04:45:06;32.93;;;13.00;;
70247;SDS011;57641;51.416;5.506;2022-12-13T04:47:32;31.10;;;12.60;;
70247;SDS011;57641;51.416;5.506;2022-12-13T04:49:57;28.03;;;12.67;;
70247;SDS011;57641;51.416;5.506;2022-12-13T04:52:23;30.23;;;13.03;;
70247;SDS011;57641;51.416;5.506;2022-12-13T04:54:49;33.50;;;12.93;;
70247;SDS011;57641;51.416;5.506;2022-12-13T04:57:15;37.87;;;14.90;;
70247;SDS011;57641;51.416;5.506;2022-12-13T04:59:40;33.40;;;13.07;;
70247;SDS011;57641;51.416;5.506;2022-12-13T05:02:07;32.90;;;12.20;;
70247;SDS011;57641;51.416;5.506;2022-12-13T05:04:33;31.67;;;12.80;;
70247;SDS011;57641;51.416;5.506;2022-12-13T05:06:58;30.10;;;12.67;;
70247;SDS011;57641;51.416;5.506;2022-12-13T05:09:24;29.67;;;12.80;;
70247;SDS011;57641;51.416;5.506;2022-12-13T05:11:50;33.90;;;13.97;;
70247;SDS011;57641;51.416;5.506;2022-12-13T05:14:15;28.97;;;12.20;;
70247;SDS011;57641;51.416;5.506;2022-12-13T05:16:40;29.00;;;13.67;;
70247;SDS011;57641;51.416;5.506;2022-12-13T05:19:06;30.73;;;12.10;;
70247;SDS011;57641;51.416;5.506;2022-12-13T05:21:31;32.03;;;12.60;;
70247;SDS011;57641;51.416;5.506;2022-12-13T05:24:02;29.70;;;11.60;;
70247;SDS011;57641;51.416;5.506;2022-12-13T05:26:27;33.03;;;12.40;;
70247;SDS011;57641;51.416;5.506;2022-12-13T05:28:56;27.67;;;11.30;;
70247;SDS011;57641;51.416;5.506;2022-12-13T05:31:23;26.83;;;12.30;;
70247;SDS011;57641;51.416;5.506;2022-12-13T05:33:48;33.13;;;13.13;;
70247;SDS011;57641;51.416;5.506;2022-12-13T05:36:14;30.13;;;12.87;;
70247;SDS011;57641;51.416;5.506;2022-12-13T05:38:39;29.30;;;12.87;;
70247;SDS011;57641;51.416;5.506;2022-12-13T05:41:05;33.00;;;12.90;;
70247;SDS011;57641;51.416;5.506;2022-12-13T05:43:31;34.77;;;12.40;;
70247;SDS011;57641;51.416;5.506;2022-12-13T05:45:56;26.37;;;11.70;;
70247;SDS011;57641;51.416;5.506;2022-12-13T05:48:22;30.43;;;12.03;;
70247;SDS011;57641;51.416;5.506;2022-12-13T05:50:47;33.33;;;12.60;;
70247;SDS011;57641;51.416;5.506;2022-12-13T05:53:13;31.80;;;13.63;;
70247;SDS011;57641;51.416;5.506;2022-12-13T05:55:39;27.50;;;11.97;;
70247;SDS011;57641;51.416;5.506;2022-12-13T05:58:05;31.27;;;13.13;;
70247;SDS011;57641;51.416;5.506;2022-12-13T06:00:30;29.37;;;12.67;;
70247;SDS011;57641;51.416;5.506;2022-12-13T06:02:56;28.87;;;11.67;;
70247;SDS011;57641;51.416;5.506;2022-12-13T06:05:23;31.30;;;12.50;;
70247;SDS011;57641;51.416;5.506;2022-12-13T06:07:48;31.67;;;12.27;;
70247;SDS011;57641;51.416;5.506;2022-12-13T06:10:13;28.00;;;11.93;;
70247;SDS011;57641;51.416;5.506;2022-12-13T06:12:39;27.80;;;11.70;;
70247;SDS011;57641;51.416;5.506;2022-12-13T06:15:05;33.13;;;12.77;;
70247;SDS011;57641;51.416;5.506;2022-12-13T06:17:34;31.93;;;12.77;;
70247;SDS011;57641;51.416;5.506;2022-12-13T06:20:00;29.23;;;12.43;;
70247;SDS011;57641;51.416;5.506;2022-12-13T06:22:26;29.10;;;12.83;;
70247;SDS011;57641;51.416;5.506;2022-12-13T06:24:52;31.23;;;13.23;;
70247;SDS011;57641;51.416;5.506;2022-12-13T06:27:19;28.27;;;11.93;;
70247;SDS011;57641;51.416;5.506;2022-12-13T06:29:45;30.60;;;12.70;;
70247;SDS011;57641;51.416;5.506;2022-12-13T06:32:10;37.20;;;14.00;;
70247;SDS011;57641;51.416;5.506;2022-12-13T06:34:36;33.00;;;12.93;;
70247;SDS011;57641;51.416;5.506;2022-12-13T06:37:02;35.93;;;12.97;;
70247;SDS011;57641;51.416;5.506;2022-12-13T06:39:30;28.63;;;12.83;;
70247;SDS011;57641;51.416;5.506;2022-12-13T06:41:56;33.00;;;12.80;;
70247;SDS011;57641;51.416;5.506;2022-12-13T06:44:22;30.23;;;12.83;;
70247;SDS011;57641;51.416;5.506;2022-12-13T06:46:47;30.10;;;11.23;;
70247;SDS011;57641;51.416;5.506;2022-12-13T06:49:13;29.27;;;12.53;;
70247;SDS011;57641;51.416;5.506;2022-12-13T06:51:38;28.53;;;12.43;;
70247;SDS011;57641;51.416;5.506;2022-12-13T06:54:04;27.87;;;12.10;;
70247;SDS011;57641;51.416;5.506;2022-12-13T06:56:30;31.40;;;12.53;;
70247;SDS011;57641;51.416;5.506;2022-12-13T06:58:56;30.00;;;12.10;;
70247;SDS011;57641;51.416;5.506;2022-12-13T07:01:23;29.60;;;13.30;;
70247;SDS011;57641;51.416;5.506;2022-12-13T07:03:48;35.97;;;13.17;;
70247;SDS011;57641;51.416;5.506;2022-12-13T07:06:18;33.87;;;13.27;;
70247;SDS011;57641;51.416;5.506;2022-12-13T07:08:48;33.53;;;13.77;;
70247;SDS011;57641;51.416;5.506;2022-12-13T07:11:19;34.23;;;13.67;;
70247;SDS011;57641;51.416;5.506;2022-12-13T07:13:47;33.80;;;14.33;;
70247;SDS011;57641;51.416;5.506;2022-12-13T07:16:13;35.47;;;14.87;;
70247;SDS011;57641;51.416;5.506;2022-12-13T07:18:39;36.13;;;12.97;;
70247;SDS011;57641;51.416;5.506;2022-12-13T07:21:06;30.90;;;14.10;;
70247;SDS011;57641;51.416;5.506;2022-12-13T07:23:33;37.67;;;15.83;;
70247;SDS011;57641;51.416;5.506;2022-12-13T07:25:59;37.20;;;14.13;;
70247;SDS011;57641;51.416;5.506;2022-12-13T07:28:25;34.27;;;13.97;;
70247;SDS011;57641;51.416;5.506;2022-12-13T07:30:50;32.47;;;14.03;;
70247;SDS011;57641;51.416;5.506;2022-12-13T07:33:16;43.27;;;16.40;;
70247;SDS011;57641;51.416;5.506;2022-12-13T07:35:41;41.07;;;15.67;;
70247;SDS011;57641;51.416;5.506;2022-12-13T07:38:08;38.07;;;15.30;;
70247;SDS011;57641;51.416;5.506;2022-12-13T07:40:35;35.93;;;14.73;;
70247;SDS011;57641;51.416;5.506;2022-12-13T07:43:02;32.37;;;14.80;;
70247;SDS011;57641;51.416;5.506;2022-12-13T07:45:28;40.13;;;15.63;;
70247;SDS011;57641;51.416;5.506;2022-12-13T07:47:53;39.17;;;16.17;;
70247;SDS011;57641;51.416;5.506;2022-12-13T07:50:19;38.30;;;15.43;;
70247;SDS011;57641;51.416;5.506;2022-12-13T07:52:48;49.63;;;19.20;;
70247;SDS011;57641;51.416;5.506;2022-12-13T07:55:15;41.60;;;18.50;;
70247;SDS011;57641;51.416;5.506;2022-12-13T07:57:42;41.97;;;18.43;;
70247;SDS011;57641;51.416;5.506;2022-12-13T08:00:09;47.90;;;18.60;;
70247;SDS011;57641;51.416;5.506;2022-12-13T08:02:35;48.50;;;17.43;;
70247;SDS011;57641;51.416;5.506;2022-12-13T08:05:01;43.77;;;17.10;;
70247;SDS011;57641;51.416;5.506;2022-12-13T08:07:26;45.37;;;16.33;;
70247;SDS011;57641;51.416;5.506;2022-12-13T08:09:52;44.20;;;17.07;;
70247;SDS011;57641;51.416;5.506;2022-12-13T08:12:19;45.47;;;18.10;;
70247;SDS011;57641;51.416;5.506;2022-12-13T08:14:45;39.67;;;15.57;;
70247;SDS011;57641;51.416;5.506;2022-12-13T08:17:11;40.57;;;16.50;;
70247;SDS011;57641;51.416;5.506;2022-12-13T08:19:37;48.47;;;18.47;;
70247;SDS011;57641;51.416;5.506;2022-12-13T08:22:03;43.10;;;16.47;;
70247;SDS011;57641;51.416;5.506;2022-12-13T08:24:28;45.03;;;18.20;;
70247;SDS011;57641;51.416;5.506;2022-12-13T08:26:57;45.37;;;17.40;;
70247;SDS011;57641;51.416;5.506;2022-12-13T08:29:25;45.83;;;16.60;;
70247;SDS011;57641;51.416;5.506;2022-12-13T08:31:50;44.63;;;18.57;;
70247;SDS011;57641;51.416;5.506;2022-12-13T08:34:16;42.53;;;16.50;;
70247;SDS011;57641;51.416;5.506;2022-12-13T08:36:41;48.57;;;18.53;;
70247;SDS011;57641;51.416;5.506;2022-12-13T08:39:07;46.10;;;17.17;;
70247;SDS011;57641;51.416;5.506;2022-12-13T08:41:33;45.50;;;17.93;;
70247;SDS011;57641;51.416;5.506;2022-12-13T08:43:58;44.77;;;17.73;;
70247;SDS011;57641;51.416;5.506;2022-12-13T08:46:23;49.97;;;19.40;;
70247;SDS011;57641;51.416;5.506;2022-12-13T08:48:51;53.20;;;18.97;;
70247;SDS011;57641;51.416;5.506;2022-12-13T08:51:17;48.17;;;18.13;;
70247;SDS011;57641;51.416;5.506;2022-12-13T08:53:47;46.50;;;17.73;;
70247;SDS011;57641;51.416;5.506;2022-12-13T08:56:16;52.77;;;18.37;;
70247;SDS011;57641;51.416;5.506;2022-12-13T08:58:48;46.83;;;19.13;;
70247;SDS011;57641;51.416;5.506;2022-12-13T09:01:15;48.07;;;18.53;;
70247;SDS011;57641;51.416;5.506;2022-12-13T09:03:41;45.87;;;18.57;;
70247;SDS011;57641;51.416;5.506;2022-12-13T09:06:14;47.93;;;18.83;;
70247;SDS011;57641;51.416;5.506;2022-12-13T09:08:43;50.77;;;19.00;;
70247;SDS011;57641;51.416;5.506;2022-12-13T09:11:09;48.53;;;19.60;;
70247;SDS011;57641;51.416;5.506;2022-12-13T09:13:36;40.00;;;16.73;;
70247;SDS011;57641;51.416;5.506;2022-12-13T09:16:06;46.30;;;19.67;;
70247;SDS011;57641;51.416;5.506;2022-12-13T09:18:35;47.53;;;19.60;;
70247;SDS011;57641;51.416;5.506;2022-12-13T09:21:04;53.23;;;20.20;;
70247;SDS011;57641;51.416;5.506;2022-12-13T09:23:33;56.40;;;19.90;;
70247;SDS011;57641;51.416;5.506;2022-12-13T09:26:00;59.10;;;21.17;;
70247;SDS011;57641;51.416;5.506;2022-12-13T09:28:28;50.80;;;20.50;;
70247;SDS011;57641;51.416;5.506;2022-12-13T09:30:55;52.63;;;20.30;;
70247;SDS011;57641;51.416;5.506;2022-12-13T09:33:21;50.00;;;19.33;;
70247;SDS011;57641;51.416;5.506;2022-12-13T09:35:47;61.23;;;21.90;;
70247;SDS011;57641;51.416;5.506;2022-12-13T09:38:13;59.23;;;21.57;;
70247;SDS011;57641;51.416;5.506;2022-12-13T09:40:38;58.10;;;23.00;;
70247;SDS011;57641;51.416;5.506;2022-12-13T09:43:06;55.60;;;20.97;;
70247;SDS011;57641;51.416;5.506;2022-12-13T09:45:42;58.87;;;21.17;;
70247;SDS011;57641;51.416;5.506;2022-12-13T09:48:10;56.20;;;21.53;;
70247;SDS011;57641;51.416;5.506;2022-12-13T09:50:43;55.07;;;21.50;;
70247;SDS011;57641;51.416;5.506;2022-12-13T09:53:10;56.73;;;22.27;;
70247;SDS011;57641;51.416;5.506;2022-12-13T09:55:40;60.50;;;23.10;;
70247;SDS011;57641;51.416;5.506;2022-12-13T09:58:22;51.27;;;21.10;;
70247;SDS011;57641;51.416;5.506;2022-12-13T10:00:52;55.63;;;22.67;;
70247;SDS011;57641;51.416;5.506;2022-12-13T10:03:19;57.70;;;21.50;;
70247;SDS011;57641;51.416;5.506;2022-12-13T10:05:57;57.78;;;22.65;;
70247;SDS011;57641;51.416;5.506;2022-12-13T10:08:26;58.33;;;21.27;;
70247;SDS011;57641;51.416;5.506;2022-12-13T10:10:57;61.17;;;22.63;;
70247;SDS011;57641;51.416;5.506;2022-12-13T10:13:42;53.67;;;22.67;;
70247;SDS011;57641;51.416;5.506;2022-12-13T10:18:56;52.90;;;19.93;;
70247;SDS011;57641;51.416;5.506;2022-12-13T10:21:31;53.93;;;19.53;;
70247;SDS011;57641;51.416;5.506;2022-12-13T10:24:06;56.03;;;19.80;;
70247;SDS011;57641;51.416;5.506;2022-12-13T10:26:36;52.87;;;19.07;;
70247;SDS011;57641;51.416;5.506;2022-12-13T10:29:03;52.77;;;20.23;;
70247;SDS011;57641;51.416;5.506;2022-12-13T10:31:48;56.67;;;20.13;;
70247;SDS011;57641;51.416;5.506;2022-12-13T10:36:48;51.07;;;20.67;;
70247;SDS011;57641;51.416;5.506;2022-12-13T10:39:16;53.90;;;18.70;;
70247;SDS011;57641;51.416;5.506;2022-12-13T10:41:44;49.80;;;18.83;;
70247;SDS011;57641;51.416;5.506;2022-12-13T10:46:53;48.00;;;20.10;;
70247;SDS011;57641;51.416;5.506;2022-12-13T10:49:37;43.97;;;18.53;;
70247;SDS011;57641;51.416;5.506;2022-12-13T10:52:21;53.13;;;20.33;;
70247;SDS011;57641;51.416;5.506;2022-12-13T10:54:53;53.73;;;19.63;;
70247;SDS011;57641;51.416;5.506;2022-12-13T10:57:20;49.57;;;19.83;;
70247;SDS011;57641;51.416;5.506;2022-12-13T10:59:47;46.53;;;17.87;;
70247;SDS011;57641;51.416;5.506;2022-12-13T11:02:31;46.08;;;17.75;;
70247;SDS011;57641;51.416;5.506;2022-12-13T11:05:00;50.67;;;18.50;;
70247;SDS011;57641;51.416;5.506;2022-12-13T11:07:46;52.05;;;19.08;;
70247;SDS011;57641;51.416;5.506;2022-12-13T11:10:30;43.13;;;17.27;;
70247;SDS011;57641;51.416;5.506;2022-12-13T11:12:58;49.33;;;17.95;;
70247;SDS011;57641;51.416;5.506;2022-12-13T11:15:26;42.20;;;17.03;;
70247;SDS011;57641;51.416;5.506;2022-12-13T11:17:56;48.80;;;18.00;;
70247;SDS011;57641;51.416;5.506;2022-12-13T11:20:28;47.55;;;18.65;;
70247;SDS011;57641;51.416;5.506;2022-12-13T11:25:52;41.80;;;16.37;;
70247;SDS011;57641;51.416;5.506;2022-12-13T11:28:25;45.47;;;18.15;;
70247;SDS011;57641;51.416;5.506;2022-12-13T11:31:16;47.23;;;17.37;;
70247;SDS011;57641;51.416;5.506;2022-12-13T11:37:50;45.33;;;16.70;;
70247;SDS011;57641;51.416;5.506;2022-12-13T11:39:59;43.20;;;16.65;;
70247;SDS011;57641;51.416;5.506;2022-12-13T11:42:43;41.40;;;16.75;;
70247;SDS011;57641;51.416;5.506;2022-12-13T11:45:14;43.70;;;18.73;;
70247;SDS011;57641;51.416;5.506;2022-12-13T11:50:45;41.53;;;16.83;;
70247;SDS011;57641;51.416;5.506;2022-12-13T11:53:30;43.67;;;17.97;;
70247;SDS011;57641;51.416;5.506;2022-12-13T11:56:14;38.15;;;16.20;;
70247;SDS011;57641;51.416;5.506;2022-12-13T11:59:08;43.53;;;17.58;;
70247;SDS011;57641;51.416;5.506;2022-12-13T12:07:11;47.07;;;17.27;;
70247;SDS011;57641;51.416;5.506;2022-12-13T12:13:03;40.22;;;17.58;;
70247;SDS011;57641;51.416;5.506;2022-12-13T12:18:40;37.83;;;16.45;;
70247;SDS011;57641;51.416;5.506;2022-12-13T12:21:24;41.63;;;17.25;;
70247;SDS011;57641;51.416;5.506;2022-12-13T12:26:39;43.95;;;16.08;;
70247;SDS011;57641;51.416;5.506;2022-12-13T12:31:43;37.70;;;16.50;;
70247;SDS011;57641;51.416;5.506;2022-12-13T12:38:00;38.97;;;15.93;;
70247;SDS011;57641;51.416;5.506;2022-12-13T12:54:23;39.33;;;14.68;;
70247;SDS011;57641;51.416;5.506;2022-12-13T12:56:55;39.75;;;15.27;;
70247;SDS011;57641;51.416;5.506;2022-12-13T13:04:49;34.78;;;14.05;;
70247;SDS011;57641;51.416;5.506;2022-12-13T13:07:27;38.30;;;15.00;;
70247;SDS011;57641;51.416;5.506;2022-12-13T13:09:58;40.17;;;16.13;;
70247;SDS011;57641;51.416;5.506;2022-12-13T13:12:25;37.03;;;14.88;;
70247;SDS011;57641;51.416;5.506;2022-12-13T13:14:51;32.38;;;14.20;;
70247;SDS011;57641;51.416;5.506;2022-12-13T13:19:52;35.83;;;13.80;;
70247;SDS011;57641;51.416;5.506;2022-12-13T13:22:30;36.08;;;14.88;;
70247;SDS011;57641;51.416;5.506;2022-12-13T13:25:43;35.28;;;14.32;;
70247;SDS011;57641;51.416;5.506;2022-12-13T13:27:47;32.38;;;12.25;;
70247;SDS011;57641;51.416;5.506;2022-12-13T13:30:21;33.33;;;14.77;;
70247;SDS011;57641;51.416;5.506;2022-12-13T13:32:49;32.78;;;14.10;;
70247;SDS011;57641;51.416;5.506;2022-12-13T13:38:00;43.55;;;15.35;;
70247;SDS011;57641;51.416;5.506;2022-12-13T13:54:20;31.63;;;14.13;;
70247;SDS011;57641;51.416;5.506;2022-12-13T13:57:17;32.58;;;13.73;;
70247;SDS011;57641;51.416;5.506;2022-12-13T14:22:56;30.88;;;13.23;;
70247;SDS011;57641;51.416;5.506;2022-12-13T14:31:16;29.60;;;12.55;;
70247;SDS011;57641;51.416;5.506;2022-12-13T14:33:45;26.27;;;12.55;;
70247;SDS011;57641;51.416;5.506;2022-12-13T14:36:13;31.40;;;12.65;;
70247;SDS011;57641;51.416;5.506;2022-12-13T14:38:42;30.65;;;12.30;;
70247;SDS011;57641;51.416;5.506;2022-12-13T14:41:18;28.23;;;12.55;;
70247;SDS011;57641;51.416;5.506;2022-12-13T14:43:44;31.45;;;12.25;;
70247;SDS011;57641;51.416;5.506;2022-12-13T14:46:11;27.42;;;11.02;;
70247;SDS011;57641;51.416;5.506;2022-12-13T14:48:43;32.15;;;13.10;;
70247;SDS011;57641;51.416;5.506;2022-12-13T14:51:25;29.98;;;14.50;;
70247;SDS011;57641;51.416;5.506;2022-12-13T14:53:57;25.60;;;12.10;;
70247;SDS011;57641;51.416;5.506;2022-12-13T14:56:24;27.27;;;11.63;;
70247;SDS011;57641;51.416;5.506;2022-12-13T14:58:57;28.83;;;13.13;;
70247;SDS011;57641;51.416;5.506;2022-12-13T15:03:49;30.65;;;11.80;;
70247;SDS011;57641;51.416;5.506;2022-12-13T15:06:15;29.42;;;11.55;;
70247;SDS011;57641;51.416;5.506;2022-12-13T15:08:44;34.10;;;12.23;;
70247;SDS011;57641;51.416;5.506;2022-12-13T15:11:10;29.35;;;12.13;;
70247;SDS011;57641;51.416;5.506;2022-12-13T15:16:08;33.90;;;12.65;;
70247;SDS011;57641;51.416;5.506;2022-12-13T15:18:40;29.60;;;12.82;;
70247;SDS011;57641;51.416;5.506;2022-12-13T15:21:22;27.98;;;12.32;;
70247;SDS011;57641;51.416;5.506;2022-12-13T15:23:49;32.22;;;13.02;;
70247;SDS011;57641;51.416;5.506;2022-12-13T15:26:17;25.83;;;11.32;;
70247;SDS011;57641;51.416;5.506;2022-12-13T15:28:46;31.88;;;13.07;;
70247;SDS011;57641;51.416;5.506;2022-12-13T15:31:14;24.10;;;11.65;;
70247;SDS011;57641;51.416;5.506;2022-12-13T15:33:40;31.27;;;12.55;;
70247;SDS011;57641;51.416;5.506;2022-12-13T15:39:01;21.98;;;10.57;;
70247;SDS011;57641;51.416;5.506;2022-12-13T15:41:41;28.10;;;10.85;;
70247;SDS011;57641;51.416;5.506;2022-12-13T15:44:16;33.55;;;13.23;;
70247;SDS011;57641;51.416;5.506;2022-12-13T15:46:52;26.80;;;10.98;;
70247;SDS011;57641;51.416;5.506;2022-12-13T15:49:39;29.08;;;11.15;;
70247;SDS011;57641;51.416;5.506;2022-12-13T15:57:23;28.05;;;11.18;;
70247;SDS011;57641;51.416;5.506;2022-12-13T16:00:00;23.35;;;10.50;;
70247;SDS011;57641;51.416;5.506;2022-12-13T16:02:28;28.23;;;11.93;;
70247;SDS011;57641;51.416;5.506;2022-12-13T16:05:03;27.30;;;11.48;;
70247;SDS011;57641;51.416;5.506;2022-12-13T16:07:33;29.05;;;11.00;;
70247;SDS011;57641;51.416;5.506;2022-12-13T16:10:02;26.23;;;11.38;;
70247;SDS011;57641;51.416;5.506;2022-12-13T16:12:34;24.40;;;11.45;;
70247;SDS011;57641;51.416;5.506;2022-12-13T16:15:15;27.42;;;12.10;;
70247;SDS011;57641;51.416;5.506;2022-12-13T16:17:49;24.67;;;10.75;;
70247;SDS011;57641;51.416;5.506;2022-12-13T16:20:16;28.33;;;11.50;;
70247;SDS011;57641;51.416;5.506;2022-12-13T16:22:43;26.30;;;11.20;;
70247;SDS011;57641;51.416;5.506;2022-12-13T16:25:17;27.98;;;11.60;;
70247;SDS011;57641;51.416;5.506;2022-12-13T16:27:44;27.20;;;11.45;;
70247;SDS011;57641;51.416;5.506;2022-12-13T16:33:23;28.65;;;12.18;;
70247;SDS011;57641;51.416;5.506;2022-12-13T16:35:50;24.63;;;10.85;;
70247;SDS011;57641;51.416;5.506;2022-12-13T16:38:17;26.27;;;11.63;;
70247;SDS011;57641;51.416;5.506;2022-12-13T16:40:43;26.35;;;11.38;;
70247;SDS011;57641;51.416;5.506;2022-12-13T16:43:15;22.67;;;10.68;;
70247;SDS011;57641;51.416;5.506;2022-12-13T16:45:43;25.63;;;11.75;;
70247;SDS011;57641;51.416;5.506;2022-12-13T16:48:12;27.73;;;11.75;;
70247;SDS011;57641;51.416;5.506;2022-12-13T16:50:40;22.80;;;10.52;;
70247;SDS011;57641;51.416;5.506;2022-12-13T16:53:06;25.50;;;11.23;;
70247;SDS011;57641;51.416;5.506;2022-12-13T16:55:31;29.48;;;11.98;;
70247;SDS011;57641;51.416;5.506;2022-12-13T16:57:58;28.98;;;11.18;;